Pagina principale
METAR-TAF:

METAR-TAF

Aeroporti :

Wallis, Francia

latitudine: 13-14S, longitudine: 176-10W, altezza: 23 m

METAR: mancante

Ora: 17:43 (05:43 UTC)

Previsione

Il bollettino è stato emesso 43 minuti fa, alle 05:00 UTC
Previsione valida dal 18 alle 06 UTC al 19 alle 06 UTC
Vento 12 kt da sud/sud-est
Visibilità 10 km o più
Nubi sparse ad un'altezza di 2500 ft
Nubi sparse ad un'altezza di 4500 ft
Probabilità 40% :
Temporaneamente
dal 18 alle 13 UTC al 18 alle 20 UTC
Poco nuvoloso ad un'altezza di 2500 ft, Cumulo congesto.
rovesci di pioggia

TAF: NLWW 180500Z 1806/1906 15012KT 9999 SCT025 SCT045 PROB40 TEMPO 1813/1820 SHRA FEW025TCU

Osservazioni e previsioni meteorologiche di più di 4000 aeroporti (messaggi METAR e TAF).

Le stazioni disponibili sono rappresentate dai dischi gialli e rossi sulla carta.

Puntare il mouse per vedere il nome della stazione.

Clicca sopra per visualizzare le osservazioni e previsioni meteorologiche.

Per cambiare la mappa : fare clic sui pulsanti verdi con una croce nera per ingrandire, il pulsante verde con un trattino per diminuire, o sulla freccia verde per le mappe adiacenti.


METAR-TAF: